Las Galeras, Dominican Republic

10:22 PM AST on March 19, 2019 (GMT -0400)
Casa Barbara Las Terrenas | | Change Station

Elev 20 ft 19.32 °N, 69.54 °W | Updated 2 minutes ago

Clear
Clear
75.9 °F
Feels Like 78 °F
N
1.4
Wind Variable Wind from SSW
Gusts 2.7 mph

Today
High -- | Low -- °F
--% Chance of Precip.
Yesterday
High -- | Low -- °F
Precip. -- in
Pressure 30.01 in
Visibility 6.2 miles
Clouds Few 1600 ft
Heat Index 78 °F
Dew Point 64 °F
Humidity 67%
Rainfall 0.00 in
Snow Depth Not available.
6:41 AM 6:47 PM
Waxing Gibbous, 99% visible
METAR MDLR 200200Z 00000KT 9999 FEW016 20/20 Q1016 NOSIG
Pressure 30.01 in
Visibility 6.2 miles
Clouds Few 1600 ft
Heat Index 78 °F
Dew Point 64 °F
Humidity 67%
Rainfall 0.00 in
Snow Depth Not available.
6:41 AM 6:47 PM
Waxing Gibbous, 99% visible
METAR MDLR 200200Z 00000KT 9999 FEW016 20/20 Q1016 NOSIG

Get Severe Weather Alerts

Thanks for signing up!

Be on the lookout for a verification email in your inbox.

You'll start receiving the daily forecast at 6 AM.

×

10-Day Weather Forecast

No radar image for this location.
×

Almanac

Astronomy

Mar. 19, 2019 Rise Set
Actual Time
Civil Twilight
Nautical Twilight
Astronomical Twilight
Moon
Length of Visible Light
Length of Day
Tomorrow will be .
, % of the Moon is Illuminated

Today's Extremes

Country Highs Country Lows

Community

WunderPhotos

Category 6

Welcome to Category 6. This is the collective home for Weather Underground's featured writeups by Dr. Jeff Masters (right), Bob Henson (left), Chris Burt, and other regular contributors.

Nearby

Air Quality

  Air Quality AQ Index Pollutant
Not available.

Snow Depth

Station Depth Elevation

Earthquake Activity

City Distance Mag. Time & Date
Minimum magnitude displayed is 2.5.

Coastal Water Temperatures

Place Temperature

Stations

Nearby Weather Stations

Station Location Temp. Windchill Dew Point Humidity Wind Precip. Elev Updated Type